Pagrindinis puslapis
METAR-TAF:

METAR-TAF

Oro uostai :

Kvala Lumpūro tarptautinis oro uostas

Kvala Lumpūras, Malaizija

platuma: 02-44N, ilguma: 101-42E, Aukštis: 21 m

Dabartinis oras

Ataskaita buvo paskelbta 36 minutes, ne 20:00 UTC
Vėjas 2 kt nuo kintamojo kryptimis
Temperatūra 24°C
Drėgmė 94%
Slėgis 1009 hPa
Matomumas: 9000 m
Mažai debesys ne aukštis mažesnis nei 100 ft

METAR: WMKK 152000Z VRB02KT 9000 FEW000 24/23 Q1009 NOSIG

Laikas: 04:36 (20:36 UTC)

Prognozė

Ataskaita buvo paskelbta 3 valandos ir 36 minutes, ne 17:00 UTC
Prognozė galioja nuo 15 metu 18 UTC su 17 metu 00 UTC
Vėjas 3 kt nuo kintamojo kryptimis
Matomumas: 9000 m
Mažai debesys ne aukštis 1700 ft, Liūtiniai kamuoliniai debesys.
Laikinai
nuo 16 metu 07 UTC su 16 metu 11 UTC
Matomumas: 4000 m
Mažai debesys ne aukštis 1000 ft
Mažai debesys ne aukštis 1700 ft, Liūtiniai kamuoliniai debesys.
Išsisklaidę debesys ne aukštis 2000 ft
perkūnija, lietus

TAF: WMKK 151700Z 1518/1700 VRB03KT 9000 FEW017CB TEMPO 1607/1611 4000 TSRA FEW010 FEW017CB SCT020

Orai ataskaitas ir orų prognozės (METAR, TAF).

turimą stotys yra geltonos ir raudonos taškus žemėlapyje.

Perkelti pele per norėdami pamatyti stoties vardą.

Tada spustelėkite, norėdami matyti oro stebėjimo ir prognozės.

Norėdami pakeisti žemėlapį: spustelėkite ant žalios mygtukų su juodo kryžiaus žemyn,; žalią mygtuką su brūkšneliu, jei norite nutolinti; arba žalių rodyklių gretimoms žemėlapius.


METAR-TAF: